createdAt,value
2017-11-11T00:00:23.038Z,74.43
2017-11-11T00:01:23.351Z,75.38
2017-11-11T00:02:23.336Z,73.76
2017-11-11T00:03:23.622Z,73.86
2017-11-11T00:04:23.320Z,72.06
2017-11-11T00:05:23.333Z,71.01
2017-11-11T00:06:23.018Z,70.35
2017-11-11T00:08:23.212Z,66.64
2017-11-11T00:09:23.202Z,67.59
2017-11-11T00:10:22.868Z,67.88
2017-11-11T00:11:22.827Z,66.74
2017-11-11T00:12:23.175Z,64.17
2017-11-11T00:13:22.807Z,63.32
2017-11-11T00:14:22.770Z,63.32
2017-11-11T00:15:23.139Z,63.04
2017-11-11T00:16:22.722Z,66.55
2017-11-11T00:17:22.708Z,61.33
2017-11-11T00:18:22.715Z,61.71
2017-11-11T00:19:23.006Z,61.14
2017-11-11T00:20:23.263Z,63.7
2017-11-11T00:21:22.963Z,65.69
2017-11-11T00:22:22.979Z,65.03
2017-11-11T00:23:22.962Z,65.31
2017-11-11T00:24:22.606Z,64.27
2017-11-11T00:25:22.883Z,64.37
2017-11-11T00:26:23.036Z,63.7
2017-11-11T00:27:22.596Z,72.72
2017-11-11T00:28:22.837Z,72.81
2017-11-11T00:29:22.466Z,72.53
2017-11-11T00:30:22.602Z,72.25
2017-11-11T00:31:22.800Z,72.06
2017-11-11T00:32:22.745Z,68.16
2017-11-11T00:33:22.385Z,69.59
2017-11-11T00:34:22.711Z,68.64
2017-11-11T00:35:22.351Z,68.35
2017-11-11T00:36:22.674Z,68.35
2017-11-11T00:37:22.643Z,69.49
2017-11-11T00:38:22.305Z,69.02
2017-11-11T00:39:22.606Z,70.54
2017-11-11T00:40:22.590Z,70.06
2017-11-11T00:41:22.232Z,67.88
2017-11-11T00:42:22.212Z,67.59
2017-11-11T00:43:22.531Z,67.59
2017-11-11T00:44:22.508Z,65.6
2017-11-11T00:45:22.150Z,69.49
2017-11-11T00:46:22.138Z,65.69
2017-11-11T00:47:22.482Z,66.46
2017-11-11T00:48:22.431Z,65.41
2017-11-11T00:49:22.410Z,66.74
2017-11-11T00:50:22.411Z,67.88
2017-11-11T00:51:22.368Z,64.94
2017-11-11T00:52:22.021Z,65.41
2017-11-11T00:53:22.329Z,65.41
2017-11-11T00:54:22.321Z,64.94
2017-11-11T00:55:22.062Z,65.79
2017-11-11T00:56:22.282Z,65.6
2017-11-11T00:57:21.934Z,65.6
2017-11-11T00:58:21.896Z,65.69
2017-11-11T00:59:21.881Z,66.17
2017-11-11T01:00:22.207Z,63.51
2017-11-11T01:01:22.174Z,63.23
2017-11-11T01:02:22.167Z,63.23
2017-11-11T01:03:21.817Z,65.12
2017-11-11T01:04:21.791Z,65.31
2017-11-11T01:05:21.759Z,65.5
2017-11-11T01:06:21.739Z,65.41
2017-11-11T01:07:22.053Z,63.89
2017-11-11T01:08:21.696Z,62.94
2017-11-11T01:09:21.677Z,60.1
2017-11-11T01:10:21.659Z,61.23
2017-11-11T01:11:21.971Z,61.23
2017-11-11T01:12:21.960Z,60.76
2017-11-11T01:13:21.942Z,61.23
2017-11-11T01:14:21.917Z,60.95
2017-11-11T01:15:21.897Z,61.04
2017-11-11T01:16:21.540Z,59.52
2017-11-11T01:17:21.853Z,57.24
2017-11-11T01:18:21.837Z,55.54
2017-11-11T01:19:21.829Z,54.58
2017-11-11T01:20:21.803Z,54.21
2017-11-11T01:21:21.773Z,52.78
2017-11-11T01:22:21.419Z,52.22
2017-11-11T01:23:21.401Z,51.26
2017-11-11T01:24:21.724Z,51.17
2017-11-11T01:25:21.363Z,51.45
2017-11-11T01:26:21.672Z,50.79
2017-11-11T01:27:21.656Z,46.42
2017-11-11T01:28:21.296Z,47.28
2017-11-11T01:29:21.619Z,45
2017-11-11T01:30:21.262Z,44.9
2017-11-11T01:31:21.586Z,42.43
2017-11-11T01:32:21.223Z,43.1
2017-11-11T01:33:21.540Z,43.19
2017-11-11T01:34:21.516Z,42.53
2017-11-11T01:35:21.492Z,42.53
2017-11-11T01:36:21.176Z,43.19
2017-11-11T01:37:21.120Z,43.57
2017-11-11T01:38:21.437Z,44.24
2017-11-11T01:39:21.455Z,43.29
2017-11-11T01:40:21.059Z,43.1
2017-11-11T01:41:21.377Z,42.82
2017-11-11T01:42:21.356Z,44.43
2017-11-11T01:43:21.337Z,43.67
2017-11-11T01:44:21.314Z,44.9
2017-11-11T01:45:21.296Z,44.9
2017-11-11T01:46:21.288Z,43.48
2017-11-11T01:47:21.262Z,46.51
2017-11-11T01:48:21.246Z,45.85
2017-11-11T01:49:21.216Z,46.51
2017-11-11T01:50:21.199Z,46.42
2017-11-11T01:51:21.226Z,47.75
2017-11-11T01:52:21.161Z,48.61
2017-11-11T01:53:21.138Z,47.18
2017-11-11T01:54:21.117Z,46.33
2017-11-11T01:55:20.762Z,46.61
2017-11-11T01:56:21.078Z,46.42
2017-11-11T01:57:21.060Z,45.76
2017-11-11T01:58:21.037Z,45.66
2017-11-11T01:59:21.028Z,46.8
2017-11-11T02:00:20.662Z,46.42
2017-11-11T02:01:20.990Z,46.04
2017-11-11T02:02:20.624Z,46.42
2017-11-11T02:03:20.933Z,46.23
2017-11-11T02:04:20.586Z,45.95
2017-11-11T02:05:20.901Z,47.37
2017-11-11T02:06:20.881Z,46.61
2017-11-11T02:07:20.859Z,48.61
2017-11-11T02:08:20.832Z,48.89
2017-11-11T02:09:20.817Z,48.8
2017-11-11T02:10:20.796Z,49.55
2017-11-11T02:11:20.775Z,50.51
2017-11-11T02:12:20.756Z,51.36
2017-11-11T02:13:20.410Z,52.5
2017-11-11T02:14:20.713Z,52.97
2017-11-11T02:15:20.697Z,53.16
2017-11-11T02:16:20.679Z,54.49
2017-11-11T02:17:20.320Z,53.64
2017-11-11T02:18:20.642Z,54.49
2017-11-11T02:19:20.619Z,59.14
2017-11-11T02:20:20.603Z,58.1
2017-11-11T02:21:20.252Z,58.29
2017-11-11T02:22:20.222Z,59.52
2017-11-11T02:23:20.571Z,61.71
2017-11-11T02:24:20.516Z,61.8
2017-11-11T02:25:20.161Z,61.9
2017-11-11T02:26:20.475Z,61.9
2017-11-11T02:27:20.120Z,61.71
2017-11-11T02:28:20.106Z,61.61
2017-11-11T02:29:20.080Z,60.66
2017-11-11T02:30:20.394Z,61.9
2017-11-11T02:31:20.380Z,60.95
2017-11-11T02:32:20.355Z,62.37
2017-11-11T02:33:20.005Z,61.04
2017-11-11T02:34:19.979Z,61.61
2017-11-11T02:35:19.965Z,59.14
2017-11-11T02:36:19.942Z,59.52
2017-11-11T02:37:20.257Z,59.52
2017-11-11T02:38:20.241Z,60.57
2017-11-11T02:39:20.217Z,58.48
2017-11-11T02:40:20.204Z,59.33
2017-11-11T02:41:20.177Z,58.2
2017-11-11T02:42:20.023Z,56.77
2017-11-11T02:43:20.134Z,56.29
2017-11-11T02:44:19.783Z,54.21
2017-11-11T02:45:19.759Z,54.87
2017-11-11T02:46:20.087Z,54.78
2017-11-11T02:47:20.056Z,54.87
2017-11-11T02:48:19.712Z,54.68
2017-11-11T02:49:20.015Z,54.21
2017-11-11T02:50:19.662Z,53.92
2017-11-11T02:51:19.983Z,53.45
2017-11-11T02:52:19.620Z,52.69
2017-11-11T02:53:19.937Z,52.22
2017-11-11T02:54:19.916Z,50.6
2017-11-11T02:55:19.560Z,49.37
2017-11-11T02:56:19.884Z,48.51
2017-11-11T02:57:19.868Z,48.51
2017-11-11T02:58:19.500Z,48.7
2017-11-11T02:59:19.478Z,47.37
2017-11-11T03:00:19.795Z,47.37
2017-11-11T03:01:19.778Z,47.75
2017-11-11T03:02:19.752Z,48.51
2017-11-11T03:03:19.737Z,47.09
2017-11-11T03:04:19.386Z,46.99
2017-11-11T03:05:19.689Z,46.23
2017-11-11T03:06:19.336Z,45.66
2017-11-11T03:07:19.325Z,44.53
2017-11-11T03:08:19.630Z,44.43
2017-11-11T03:09:19.280Z,43.76
2017-11-11T03:10:19.253Z,43.67
2017-11-11T03:11:19.574Z,42.34
2017-11-11T03:12:19.557Z,41.39
2017-11-11T03:13:19.534Z,41.67
2017-11-11T03:14:19.173Z,41.58
2017-11-11T03:15:19.500Z,41.2
2017-11-11T03:16:19.470Z,41.11
2017-11-11T03:17:19.118Z,41.01
2017-11-11T03:18:19.427Z,41.01
2017-11-11T03:19:19.422Z,40.06
2017-11-11T03:20:19.052Z,40.72
2017-11-11T03:21:19.037Z,41.11
2017-11-11T03:22:19.345Z,41.2
2017-11-11T03:23:19.047Z,41.49
2017-11-11T03:24:18.976Z,41.3
2017-11-11T03:25:18.951Z,41.2
2017-11-11T03:26:19.294Z,40.92
2017-11-11T03:27:19.248Z,40.61
2017-11-11T03:28:19.237Z,40.89
2017-11-11T03:29:19.209Z,39.66
2017-11-11T03:30:18.860Z,39.66
2017-11-11T03:31:19.180Z,39.85
2017-11-11T03:32:18.814Z,39.85
2017-11-11T03:33:19.127Z,39.09
2017-11-11T03:34:19.100Z,38.81
2017-11-11T03:35:19.088Z,38.14
2017-11-11T03:36:18.726Z,37.67
2017-11-11T03:37:19.060Z,37.57
2017-11-11T03:38:19.022Z,37.76
2017-11-11T03:39:19.003Z,37.86
2017-11-11T03:40:18.990Z,38.05
2017-11-11T03:41:18.961Z,37.19
2017-11-11T03:42:18.943Z,37.29
2017-11-11T03:43:18.935Z,37.38
2017-11-11T03:44:18.564Z,37.1
2017-11-11T03:45:18.543Z,36.82
2017-11-11T03:46:18.861Z,36.63
2017-11-11T03:47:18.838Z,35.58
2017-11-11T03:48:18.819Z,34.25
2017-11-11T03:49:18.794Z,34.44
2017-11-11T03:50:18.982Z,34.25
2017-11-11T03:51:18.760Z,34.34
2017-11-11T03:52:18.398Z,34.25
2017-11-11T03:53:18.380Z,34.06
2017-11-11T03:54:18.705Z,34.25
2017-11-11T03:55:18.338Z,34.06
2017-11-11T03:56:18.324Z,34.06
2017-11-11T03:57:18.302Z,33.87
2017-11-11T03:58:18.614Z,34.34
2017-11-11T03:59:18.596Z,34.25
2017-11-11T04:00:18.572Z,34.75
2017-11-11T04:01:18.551Z,35.13
2017-11-11T04:02:18.533Z,35.41
2017-11-11T04:03:18.511Z,35.5
2017-11-11T04:04:18.491Z,35.31
2017-11-11T04:05:18.131Z,35.5
2017-11-11T04:06:18.447Z,34.36
2017-11-11T04:07:18.426Z,34.65
2017-11-11T04:08:18.414Z,34.27
2017-11-11T04:09:18.055Z,33.7
2017-11-11T04:10:18.029Z,33.04
2017-11-11T04:11:18.014Z,32.46
2017-11-11T04:12:18.335Z,32.09
2017-11-11T04:13:17.970Z,31.61
2017-11-11T04:14:18.289Z,31.99
2017-11-11T04:15:17.931Z,31.99
2017-11-11T04:16:17.909Z,31.42
2017-11-11T04:17:18.228Z,31.42
2017-11-11T04:18:18.218Z,30.57
2017-11-11T04:19:18.188Z,29.43
2017-11-11T04:20:18.165Z,29.05
2017-11-11T04:21:17.808Z,28.48
2017-11-11T04:22:18.129Z,28.29
2017-11-11T04:23:17.773Z,28.19
2017-11-11T04:24:18.084Z,28.96
2017-11-11T04:25:17.737Z,28.48
2017-11-11T04:26:18.044Z,28.1
2017-11-11T04:27:18.031Z,28.48
2017-11-11T04:28:18.002Z,28.48
2017-11-11T04:29:17.699Z,28.29
2017-11-11T04:30:17.966Z,28.86
2017-11-11T04:31:17.605Z,28.38
2017-11-11T04:32:17.929Z,28.19
2017-11-11T04:33:17.579Z,29.05
2017-11-11T04:34:17.550Z,29.52
2017-11-11T04:35:17.865Z,29.52
2017-11-11T04:36:17.845Z,29.43
2017-11-11T04:37:17.827Z,29.52
2017-11-11T04:38:17.810Z,29.43
2017-11-11T04:39:17.444Z,29.52
2017-11-11T04:40:17.430Z,29.43
2017-11-11T04:41:17.408Z,28.96
2017-11-11T04:42:17.390Z,29.43
2017-11-11T04:43:17.700Z,29.52
2017-11-11T04:44:17.681Z,29.33
2017-11-11T04:45:17.325Z,29.14
2017-11-11T04:46:17.678Z,28.77
2017-11-11T04:47:17.622Z,28.19
2017-11-11T04:48:17.603Z,28.18
2017-11-11T04:49:17.580Z,28.08
2017-11-11T04:50:17.225Z,28.57
2017-11-11T04:51:17.547Z,28.29
2017-11-11T04:52:17.522Z,29.13
2017-11-11T04:53:17.500Z,29.22
2017-11-11T04:54:17.145Z,28.18
2017-11-11T04:55:17.459Z,28.47
2017-11-11T04:56:17.447Z,27.99
2017-11-11T04:57:17.085Z,28.08
2017-11-11T04:58:17.066Z,27.7
2017-11-11T04:59:17.406Z,28.18
2017-11-11T05:00:17.357Z,28.27
2017-11-11T05:01:17.331Z,28.18
2017-11-11T05:02:17.318Z,29.22
2017-11-11T05:03:17.299Z,29.51
2017-11-11T05:04:17.275Z,29.51
2017-11-11T05:05:17.250Z,30.36
2017-11-11T05:06:17.234Z,30.46
2017-11-11T05:07:16.877Z,30.83
2017-11-11T05:08:17.193Z,31.21
2017-11-11T05:09:16.835Z,32.35
2017-11-11T05:10:17.149Z,31.88
2017-11-11T05:11:16.803Z,31.31
2017-11-11T05:12:17.111Z,31.02
2017-11-11T05:13:17.100Z,30.55
2017-11-11T05:14:17.069Z,31.21
2017-11-11T05:15:17.049Z,31.31
2017-11-11T05:16:16.696Z,31.6
2017-11-11T05:17:17.009Z,30.65
2017-11-11T05:18:16.986Z,31.41
2017-11-11T05:19:16.972Z,32.07
2017-11-11T05:20:16.944Z,32.54
2017-11-11T05:21:16.932Z,32.92
2017-11-11T05:22:16.575Z,32.64
2017-11-11T05:23:16.553Z,33.02
2017-11-11T05:24:16.529Z,32.83
2017-11-11T05:25:16.845Z,33.5
2017-11-11T05:26:16.486Z,32.92
2017-11-11T05:27:16.798Z,33.02
2017-11-11T05:28:16.785Z,32.73
2017-11-11T05:29:16.757Z,33.21
2017-11-11T05:30:16.741Z,33.4
2017-11-11T05:31:16.382Z,34.06
2017-11-11T05:32:16.699Z,34.73
2017-11-11T05:33:16.343Z,35.01
2017-11-11T05:34:16.659Z,34.73
2017-11-11T05:35:16.306Z,34.44
2017-11-11T05:36:16.616Z,35.3
2017-11-11T05:37:16.258Z,35.49
2017-11-11T05:38:16.586Z,35.39
2017-11-11T05:39:16.559Z,34.92
2017-11-11T05:40:16.534Z,35.58
2017-11-11T05:41:16.562Z,36.15
2017-11-11T05:42:16.534Z,35.86
2017-11-11T05:43:16.143Z,37.19
2017-11-11T05:44:16.453Z,37.1
2017-11-11T05:45:16.093Z,37.86
2017-11-11T05:46:16.077Z,37.4
2017-11-11T05:47:16.055Z,37.88
2017-11-11T05:48:16.031Z,39.68
2017-11-11T05:49:16.350Z,39.97
2017-11-11T05:50:16.205Z,39.3
2017-11-11T05:51:16.305Z,39.87
2017-11-11T05:52:16.494Z,39.97
2017-11-11T05:53:16.275Z,39.3
2017-11-11T05:54:15.919Z,39.87
2017-11-11T05:55:15.888Z,40.06
2017-11-11T05:56:16.071Z,40.06
2017-11-11T05:57:16.185Z,40.16
2017-11-11T05:58:16.164Z,40.06
2017-11-11T05:59:15.816Z,40.34
2017-11-11T06:00:16.135Z,40.34
2017-11-11T06:01:16.106Z,40.53
2017-11-11T06:02:16.085Z,40.92
2017-11-11T06:03:16.072Z,41.39
2017-11-11T06:04:15.708Z,40.44
2017-11-11T06:05:15.690Z,42.24
2017-11-11T06:06:16.007Z,41.86
2017-11-11T06:07:16.236Z,42.43
2017-11-11T06:08:15.964Z,42.34
2017-11-11T06:09:15.945Z,43.48
2017-11-11T06:10:15.591Z,43.01
2017-11-11T06:11:15.909Z,43.67
2017-11-11T06:12:15.881Z,43.76
2017-11-11T06:13:15.527Z,44.62
2017-11-11T06:14:15.508Z,44.81
2017-11-11T06:15:15.488Z,45.57
2017-11-11T06:16:15.802Z,45.28
2017-11-11T06:17:15.798Z,46.61
2017-11-11T06:18:15.769Z,45.76
2017-11-11T06:19:15.403Z,44.71
2017-11-11T06:20:15.738Z,45.28
2017-11-11T06:21:15.698Z,44.53
2017-11-11T06:22:15.763Z,44.53
2017-11-11T06:23:15.323Z,44.62
2017-11-11T06:24:15.637Z,45.57
2017-11-11T06:25:15.617Z,45.85
2017-11-11T06:26:15.267Z,46.33
2017-11-11T06:27:15.586Z,46.61
2017-11-11T06:28:15.223Z,47.37
2017-11-11T06:29:15.220Z,47.09
2017-11-11T06:30:15.525Z,46.33
2017-11-11T06:31:15.497Z,45.95
2017-11-11T06:32:15.489Z,46.42
2017-11-11T06:33:15.465Z,46.23
2017-11-11T06:34:15.440Z,46.23
2017-11-11T06:35:15.418Z,47.18
2017-11-11T06:36:15.065Z,47.37
2017-11-11T06:37:15.379Z,46.42
2017-11-11T06:38:15.024Z,46.23
2017-11-11T06:39:15.348Z,46.23
2017-11-11T06:40:14.981Z,48.41
2017-11-11T06:41:15.298Z,48.41
2017-11-11T06:42:15.278Z,47.94
2017-11-11T06:43:15.257Z,46.42
2017-11-11T06:44:15.246Z,48.61
2017-11-11T06:45:15.155Z,49.74
2017-11-11T06:46:15.198Z,49.37
2017-11-11T06:47:15.184Z,49.18
2017-11-11T06:48:14.837Z,49.27
2017-11-11T06:49:15.138Z,47.56
2017-11-11T06:50:15.117Z,46.61
2017-11-11T06:51:14.762Z,48.61
2017-11-11T06:52:14.746Z,49.27
2017-11-11T06:53:14.730Z,48.7
2017-11-11T06:54:14.703Z,50.41
2017-11-11T06:55:15.030Z,50.41
2017-11-11T06:56:15.000Z,50.6
2017-11-11T06:57:14.974Z,51.17
2017-11-11T06:58:14.966Z,51.74
2017-11-11T06:59:14.941Z,52.12
2017-11-11T07:00:14.919Z,51.74
2017-11-11T07:01:14.898Z,52.31
2017-11-11T07:02:14.879Z,52.22
2017-11-11T07:03:14.862Z,51.83
2017-11-11T07:04:14.845Z,52.31
2017-11-11T07:05:14.825Z,52.22
2017-11-11T07:06:14.801Z,52.4
2017-11-11T07:07:14.779Z,52.5
2017-11-11T07:08:14.630Z,51.83
2017-11-11T07:09:14.738Z,55.06
2017-11-11T07:10:14.719Z,54.87
2017-11-11T07:11:14.366Z,55.63
2017-11-11T07:12:14.676Z,55.57
2017-11-11T07:13:14.662Z,54.58
2017-11-11T07:14:14.302Z,54.43
2017-11-11T07:15:14.650Z,53.85
2017-11-11T07:16:14.608Z,52.78
2017-11-11T07:17:14.243Z,53.47
2017-11-11T07:18:14.819Z,53.16
2017-11-11T07:19:14.200Z,52.87
2017-11-11T07:20:14.179Z,52.4
2017-11-11T07:21:14.166Z,52.59
2017-11-11T07:22:14.476Z,52.4
2017-11-11T07:23:14.177Z,52.4
2017-11-11T07:24:14.098Z,54.3
2017-11-11T07:25:14.416Z,53.28
2017-11-11T07:26:14.061Z,53
2017-11-11T07:27:14.386Z,54.33
2017-11-11T07:28:14.021Z,52.53
2017-11-11T07:29:14.336Z,53.66
2017-11-11T07:30:14.320Z,55.09
2017-11-11T07:31:14.295Z,55.47
2017-11-11T07:32:13.940Z,54.14
2017-11-11T07:33:13.925Z,54.33
2017-11-11T07:34:14.236Z,55.47
2017-11-11T07:35:13.886Z,55.66
2017-11-11T07:36:14.202Z,55.94
2017-11-11T07:37:14.189Z,55.66
2017-11-11T07:38:14.160Z,56.23
2017-11-11T07:39:13.808Z,55.76
2017-11-11T07:40:14.125Z,55.57
2017-11-11T07:41:13.774Z,56.7
2017-11-11T07:42:13.744Z,55.09
2017-11-11T07:43:14.059Z,55.76
2017-11-11T07:44:14.041Z,55.47
2017-11-11T07:45:14.023Z,54.71
2017-11-11T07:46:14.010Z,55.09
2017-11-11T07:47:13.981Z,54.43
2017-11-11T07:48:13.971Z,55.28
2017-11-11T07:49:13.618Z,55.09
2017-11-11T07:50:13.791Z,54.61
2017-11-11T07:51:13.901Z,53.57
2017-11-11T07:52:13.883Z,54.33
2017-11-11T07:53:13.869Z,54.8
2017-11-11T07:54:13.893Z,55.57
2017-11-11T07:55:13.485Z,54.99
2017-11-11T07:56:13.472Z,55.37
2017-11-11T07:57:13.782Z,54.71
2017-11-11T07:58:13.766Z,54.9
2017-11-11T07:59:13.797Z,54.99
2017-11-11T08:00:13.728Z,55.66
2017-11-11T08:01:13.701Z,55.47
2017-11-11T08:02:13.348Z,55.47
2017-11-11T08:03:13.659Z,55.66
2017-11-11T08:04:13.699Z,55.28
2017-11-11T08:05:13.629Z,55.18
2017-11-11T08:06:13.603Z,57.28
2017-11-11T08:07:13.585Z,55.57
2017-11-11T08:08:13.600Z,56.32
2017-11-11T08:09:13.591Z,55.76
2017-11-11T08:10:13.531Z,55.18
2017-11-11T08:11:13.167Z,55.85
2017-11-11T08:12:13.488Z,55.76
2017-11-11T08:13:13.133Z,54.99
2017-11-11T08:14:13.449Z,54.24
2017-11-11T08:15:13.090Z,54.52
2017-11-11T08:16:13.408Z,56.61
2017-11-11T08:17:13.389Z,54.8
2017-11-11T08:18:13.033Z,54.8
2017-11-11T08:19:13.015Z,54.52
2017-11-11T08:20:13.341Z,55.66
2017-11-11T08:21:12.973Z,54.61
2017-11-11T08:22:12.955Z,54.61
2017-11-11T08:23:13.267Z,53.19
2017-11-11T08:24:12.917Z,54.24
2017-11-11T08:25:13.231Z,54.33
2017-11-11T08:26:13.208Z,53.38
2017-11-11T08:27:12.860Z,53.66
2017-11-11T08:28:13.169Z,54.14
2017-11-11T08:29:13.159Z,53.66
2017-11-11T08:30:12.795Z,52.53
2017-11-11T08:31:13.113Z,52.05
2017-11-11T08:32:12.764Z,52.62
2017-11-11T08:33:13.069Z,52.72
2017-11-11T08:34:12.716Z,50.15
2017-11-11T08:35:13.048Z,48.44
2017-11-11T08:36:13.015Z,45.21
2017-11-11T08:37:12.655Z,44.45
2017-11-11T08:38:12.640Z,39.32
2017-11-11T08:39:12.962Z,38.37
2017-11-11T08:40:12.601Z,34
2017-11-11T08:41:12.927Z,32.57
2017-11-11T08:42:12.564Z,30.58
2017-11-11T08:43:12.877Z,28.3
2017-11-11T08:44:12.522Z,26.31
2017-11-11T08:45:12.844Z,26.31
2017-11-11T08:46:12.483Z,25.17
2017-11-11T08:47:12.804Z,24.03
2017-11-11T08:48:12.780Z,23.46
2017-11-11T08:49:12.765Z,24.12
2017-11-11T08:50:12.403Z,23.18
2017-11-11T08:51:12.723Z,22.8
2017-11-11T08:52:12.697Z,21.47
2017-11-11T08:53:12.676Z,20.42
2017-11-11T08:54:12.658Z,20.32
2017-11-11T08:55:12.689Z,19.28
2017-11-11T08:56:12.284Z,18.99
2017-11-11T08:57:12.267Z,18.04
2017-11-11T08:58:12.577Z,17.76
2017-11-11T08:59:12.557Z,17.76
2017-11-11T09:00:12.591Z,17.38
2017-11-11T09:01:12.528Z,16.81
2017-11-11T09:02:12.163Z,16.24
2017-11-11T09:03:12.482Z,15.2
2017-11-11T09:04:12.124Z,15.29
2017-11-11T09:05:12.445Z,15
2017-11-11T09:06:12.086Z,15.1
2017-11-11T09:07:12.404Z,14.91
2017-11-11T09:08:12.055Z,15
2017-11-11T09:09:12.360Z,14.71
2017-11-11T09:10:12.563Z,13.67
2017-11-11T09:11:11.987Z,13.87
2017-11-11T09:12:11.966Z,14.06
2017-11-11T09:13:12.283Z,13.77
2017-11-11T09:14:12.261Z,13.87
2017-11-11T09:15:11.907Z,13.77
2017-11-11T09:16:12.248Z,13.68
2017-11-11T09:17:12.213Z,13.96
2017-11-11T09:18:11.858Z,13.87
2017-11-11T09:19:12.161Z,13.76
2017-11-11T09:20:12.159Z,13.68
2017-11-11T09:21:12.130Z,13.39
2017-11-11T09:22:12.103Z,13.77
2017-11-11T09:23:12.093Z,14.25
2017-11-11T09:24:12.110Z,14.06
2017-11-11T09:25:11.709Z,13.96
2017-11-11T09:26:11.685Z,14.53
2017-11-11T09:27:11.665Z,14.72
2017-11-11T09:28:11.988Z,15.29
2017-11-11T09:29:11.965Z,16.52
2017-11-11T09:30:11.946Z,16.24
2017-11-11T09:31:11.977Z,16.05
2017-11-11T09:32:11.573Z,15.95
2017-11-11T09:33:11.881Z,16.24
2017-11-11T09:34:11.524Z,17.76
2017-11-11T09:35:11.510Z,17.85
2017-11-11T09:36:11.540Z,18.24
2017-11-11T09:37:11.476Z,17.85
2017-11-11T09:38:11.787Z,17.85
2017-11-11T09:39:11.767Z,17.66
2017-11-11T09:40:11.751Z,17
2017-11-11T09:41:11.775Z,16.91
2017-11-11T09:42:11.709Z,17.19
2017-11-11T09:43:11.682Z,17
2017-11-11T09:44:11.665Z,17.1
2017-11-11T09:45:11.642Z,16.43
2017-11-11T09:46:11.289Z,17
2017-11-11T09:47:11.273Z,17.29
2017-11-11T09:48:11.595Z,18.24
2017-11-11T09:49:11.563Z,17.66
2017-11-11T09:50:11.750Z,17.66
2017-11-11T09:51:11.192Z,17.66
2017-11-11T09:52:11.177Z,18.14
2017-11-11T09:53:11.491Z,18.62
2017-11-11T09:54:11.131Z,18.43
2017-11-11T09:55:11.450Z,18.04
2017-11-11T09:56:11.432Z,19.18
2017-11-11T09:57:11.420Z,20.61
2017-11-11T09:58:11.388Z,20.32
2017-11-11T09:59:11.369Z,22.22
2017-11-11T10:00:11.359Z,22.7
2017-11-11T10:01:11.326Z,21.75
2017-11-11T10:02:11.309Z,22.13
2017-11-11T10:03:11.287Z,21.47
2017-11-11T10:04:11.269Z,21.18
2017-11-11T10:05:11.259Z,22.22
2017-11-11T10:06:11.246Z,22.41
2017-11-11T10:07:10.870Z,22.22
2017-11-11T10:08:11.189Z,21.75
2017-11-11T10:09:11.171Z,22.32
2017-11-11T10:10:11.159Z,22.6
2017-11-11T10:11:11.132Z,21.75
2017-11-11T10:12:11.114Z,21.84
2017-11-11T10:13:11.092Z,22.6
2017-11-11T10:14:11.071Z,23.27
2017-11-11T10:15:10.716Z,22.8
2017-11-11T10:16:11.035Z,22.03
2017-11-11T10:17:10.676Z,22.8
2017-11-11T10:18:10.660Z,22.22
2017-11-11T10:19:10.970Z,22.89
2017-11-11T10:20:10.955Z,23.46
2017-11-11T10:21:10.936Z,23.36
2017-11-11T10:22:10.965Z,22.41
2017-11-11T10:23:10.898Z,22.22
2017-11-11T10:24:10.880Z,21.84
2017-11-11T10:25:10.877Z,22.13
2017-11-11T10:26:10.502Z,23.55
2017-11-11T10:27:10.529Z,23.93
2017-11-11T10:28:10.801Z,23.84
2017-11-11T10:29:10.776Z,24.03
2017-11-11T10:30:10.422Z,24.03
2017-11-11T10:31:10.749Z,23.18
2017-11-11T10:32:10.436Z,23.55
2017-11-11T10:33:10.365Z,24.41
2017-11-11T10:34:10.689Z,23.36
2017-11-11T10:35:10.662Z,22.89
2017-11-11T10:36:10.647Z,23.27
2017-11-11T10:37:10.687Z,22.8
2017-11-11T10:38:10.272Z,21.84
2017-11-11T10:39:10.586Z,22.13
2017-11-11T10:40:10.229Z,21.28
2017-11-11T10:41:10.209Z,20.32
2017-11-11T10:42:10.192Z,20.23
2017-11-11T10:43:10.177Z,21.28
2017-11-11T10:44:10.488Z,20.7
2017-11-11T10:45:10.135Z,20.14
2017-11-11T10:46:10.449Z,20.7
2017-11-11T10:47:10.435Z,21.18
2017-11-11T10:48:10.076Z,21.47
2017-11-11T10:49:10.391Z,21.66
2017-11-11T10:50:10.041Z,22.41
2017-11-11T10:51:10.365Z,22.13
2017-11-11T10:52:10.332Z,21.84
2017-11-11T10:53:09.980Z,21.19
2017-11-11T10:54:10.299Z,21.47
2017-11-11T10:55:10.274Z,23.19
2017-11-11T10:56:09.926Z,25.18
2017-11-11T10:57:10.239Z,24.99
2017-11-11T10:58:10.222Z,25.84
2017-11-11T10:59:10.207Z,25.46
2017-11-11T11:00:09.846Z,28.98
2017-11-11T11:01:09.825Z,27.56
2017-11-11T11:02:09.807Z,28.51
2017-11-11T11:03:10.129Z,28.6
2017-11-11T11:04:09.770Z,29.93
2017-11-11T11:05:10.087Z,31.93
2017-11-11T11:06:10.070Z,30.98
2017-11-11T11:07:09.713Z,29.84
2017-11-11T11:08:09.740Z,31.26
2017-11-11T11:09:10.008Z,31.55
2017-11-11T11:10:09.991Z,31.84
2017-11-11T11:11:09.975Z,32.31
2017-11-11T11:12:09.617Z,32.12
2017-11-11T11:13:09.990Z,32.5
2017-11-11T11:14:09.920Z,32.03
2017-11-11T11:15:09.561Z,32.88
2017-11-11T11:16:09.544Z,33.07
2017-11-11T11:17:09.531Z,32.78
2017-11-11T11:18:09.896Z,32.69
2017-11-11T11:19:09.825Z,33.64
2017-11-11T11:20:09.811Z,33.54
2017-11-11T11:21:09.787Z,34.02
2017-11-11T11:22:09.764Z,33.54
2017-11-11T11:23:09.798Z,33.17
2017-11-11T11:24:09.728Z,32.88
2017-11-11T11:25:09.371Z,33.54
2017-11-11T11:26:09.691Z,32.69
2017-11-11T11:27:09.338Z,32.5
2017-11-11T11:28:09.328Z,32.4
2017-11-11T11:29:09.300Z,32.21
2017-11-11T11:30:09.286Z,31.64
2017-11-11T11:31:09.265Z,31.84
2017-11-11T11:32:09.601Z,31.84
2017-11-11T11:33:09.227Z,34.02
2017-11-11T11:34:09.217Z,34.11
2017-11-11T11:35:09.534Z,34.02
2017-11-11T11:36:09.505Z,33.36
2017-11-11T11:37:09.493Z,32.12
2017-11-11T11:38:09.131Z,31.55
2017-11-11T11:39:09.451Z,29.27
2017-11-11T11:40:09.094Z,30.03
2017-11-11T11:41:09.436Z,30.6
2017-11-11T11:42:09.392Z,29.36
2017-11-11T11:43:09.044Z,28.89
2017-11-11T11:44:09.033Z,27.56
2017-11-11T11:45:09.340Z,28.13
2017-11-11T11:46:09.321Z,26.42
2017-11-11T11:47:08.964Z,25.94
2017-11-11T11:48:09.307Z,25.85
2017-11-11T11:49:09.262Z,26.42
2017-11-11T11:50:09.448Z,26.7
2017-11-11T11:51:09.095Z,26.51
2017-11-11T11:52:09.216Z,26.04
2017-11-11T11:53:09.197Z,25.56
2017-11-11T11:54:08.840Z,26.04
2017-11-11T11:55:09.157Z,25.46
2017-11-11T11:56:09.141Z,25.37
2017-11-11T11:57:09.115Z,24.52
2017-11-11T11:58:09.110Z,24.23
2017-11-11T11:59:08.739Z,23.94
2017-11-11T12:00:09.074Z,24.04
2017-11-11T12:01:09.049Z,23
2017-11-11T12:02:08.683Z,23.38
2017-11-11T12:03:09.204Z,23.19
2017-11-11T12:04:08.990Z,23
2017-11-11T12:05:08.970Z,23.57
2017-11-11T12:06:08.950Z,23.19
2017-11-11T12:07:08.591Z,23.28
2017-11-11T12:08:08.914Z,23.57
2017-11-11T12:09:08.941Z,23.47
2017-11-11T12:10:08.870Z,23.28
2017-11-11T12:11:08.524Z,23.09
2017-11-11T12:12:08.497Z,22.8
2017-11-11T12:13:08.821Z,22.24
2017-11-11T12:14:08.518Z,22.33
2017-11-11T12:15:08.440Z,22.24
2017-11-11T12:16:08.759Z,21.47
2017-11-11T12:17:08.737Z,22.24
2017-11-11T12:18:08.718Z,21.57
2017-11-11T12:19:08.754Z,22.33
2017-11-11T12:20:08.690Z,22.8
2017-11-11T12:21:08.678Z,22.24
2017-11-11T12:22:08.644Z,21.76
2017-11-11T12:23:08.623Z,22.05
2017-11-11T12:24:08.371Z,22.05
2017-11-11T12:25:08.470Z,22.14
2017-11-11T12:26:08.238Z,22.14
2017-11-11T12:27:08.422Z,21.86
2017-11-11T12:28:08.578Z,21.28
2017-11-11T12:29:08.253Z,20.72
2017-11-11T12:30:08.502Z,21.19
2017-11-11T12:31:08.146Z,21
2017-11-11T12:32:08.461Z,20.72
2017-11-11T12:33:08.440Z,20.81
2017-11-11T12:34:08.088Z,21.47
2017-11-11T12:35:08.424Z,21.28
2017-11-11T12:36:08.593Z,22.05
2017-11-11T12:37:08.385Z,21.38
2017-11-11T12:38:08.353Z,21.28
2017-11-11T12:39:08.338Z,21.09
2017-11-11T12:40:08.310Z,21.76
2017-11-11T12:41:08.291Z,21.47
2017-11-11T12:42:07.946Z,21.09
2017-11-11T12:43:08.249Z,21.38
2017-11-11T12:44:08.237Z,21.86
2017-11-11T12:45:08.222Z,21.86
2017-11-11T12:46:07.862Z,22.14
2017-11-11T12:47:08.050Z,22.33
2017-11-11T12:48:08.159Z,22.05
2017-11-11T12:49:08.199Z,21.67
2017-11-11T12:50:07.793Z,21.47
2017-11-11T12:51:08.102Z,21.38
2017-11-11T12:52:08.087Z,21.38
2017-11-11T12:53:08.068Z,20.72
2017-11-11T12:54:08.065Z,21.76
2017-11-11T12:55:08.037Z,21.57
2017-11-11T12:56:07.685Z,20.53
2017-11-11T12:57:08.006Z,21.28